Time;durP1;ratioP1;P1;durP2;ratioP2;P2;SDS_P1;SDS_P2;PMS_P1;PMS_P2;Temp;Humidity;BMP_temperature;BMP_pressure;BME280_temperature;BME280_humidity;BME280_pressure;Samples;Min_cycle;Max_cycle;Signal;HPM_P1;HPM_P2
2021/12/21 00:01:07;;;;;;;24.87;8.83;;;;;;;-145.18;100.00;47762.22;5046874;28;20128;-69
2021/12/21 00:03:33;;;;;;;25.63;8.63;;;;;;;-145.18;100.00;47744.66;5047039;28;20041;-69
2021/12/21 00:05:58;;;;;;;27.73;7.33;;;;;;;-145.18;100.00;47752.47;5046636;28;20056;-69
2021/12/21 00:08:23;;;;;;;29.70;9.47;;;;;;;-145.18;100.00;47756.38;5047059;28;20445;-69
2021/12/21 00:10:49;;;;;;;24.40;8.83;;;;;;;-145.18;100.00;47750.50;5029959;28;20044;-69
2021/12/21 00:16:17;;;;;;;22.67;9.10;;;;;;;-145.18;100.00;47785.69;5015747;28;20033;-69
2021/12/21 00:23:49;;;;;;;32.75;10.70;;;;;;;-145.18;100.00;47766.13;5047233;28;20033;-69
2021/12/21 00:26:17;;;;;;;20.75;7.93;;;;;;;-145.18;100.00;47766.13;5046537;28;20533;-69
2021/12/21 00:29:01;;;;;;;24.50;8.55;;;;;;;-145.18;100.00;47773.97;5046879;28;20049;-69
2021/12/21 00:31:36;;;;;;;27.58;8.43;;;;;;;-145.18;100.00;47783.72;5046740;28;20041;-69
2021/12/21 00:34:03;;;;;;;20.55;7.70;;;;;;;-145.18;100.00;47766.13;5046663;28;20033;-69
2021/12/21 00:36:30;;;;;;;27.08;8.35;;;;;;;-145.18;100.00;47793.50;5046897;28;20071;-69
2021/12/21 00:38:58;;;;;;;25.75;9.38;;;;;;;-145.18;100.00;47777.88;5046501;28;20037;-70
2021/12/21 00:41:25;;;;;;;20.38;8.25;;;;;;;-145.18;100.00;47777.88;5028696;28;20037;-70
2021/12/21 00:43:51;;;;;;;26.45;8.02;;;;;;;-145.18;100.00;47805.22;5046559;28;20068;-70
2021/12/21 00:46:17;;;;;;;21.45;7.85;;;;;;;-145.18;100.00;47768.09;5046324;28;20445;-69
2021/12/21 00:48:52;;;;;;;21.10;7.95;;;;;;;-145.18;100.00;47795.44;5028545;28;20045;-69
2021/12/21 00:51:20;;;;;;;20.67;7.88;;;;;;;-145.18;100.00;47773.97;5046234;28;20060;-69
2021/12/21 00:53:46;;;;;;;23.05;8.25;;;;;;;-145.18;100.00;47766.13;5046315;28;20040;-68
2021/12/21 00:56:12;;;;;;;15.27;7.07;;;;;;;-145.18;100.00;47783.72;5046596;28;20036;-70
2021/12/21 00:58:37;;;;;;;17.87;7.20;;;;;;;-145.18;100.00;47785.69;5046600;28;20037;-70
2021/12/21 01:01:05;;;;;;;21.63;7.10;;;;;;;-145.18;100.00;47797.41;5047962;28;20814;-69
2021/12/21 01:03:32;;;;;;;22.30;8.23;;;;;;;-145.18;100.00;47803.25;5049787;28;20049;-69
2021/12/21 01:06:24;;;;;;;18.75;7.28;;;;;;;-145.18;100.00;47773.97;5049818;28;20429;-69
2021/12/21 01:11:51;;;;;;;27.92;7.03;;;;;;;-145.18;100.00;47785.69;5049744;28;20379;-68
2021/12/21 01:16:58;;;;;;;23.95;7.90;;;;;;;-145.18;100.00;47764.19;5029547;28;20053;-69
2021/12/21 01:19:31;;;;;;;16.23;7.00;;;;;;;-145.18;100.00;47760.28;5028191;28;20034;-69
2021/12/21 01:27:13;;;;;;;18.25;7.25;;;;;;;-145.18;100.00;47791.53;5029776;28;20048;-68
2021/12/21 01:30:04;;;;;;;20.50;7.90;;;;;;;-145.18;100.00;47781.78;5030058;28;20038;-69
2021/12/21 01:50:51;;;;;;;23.48;8.27;;;;;;;-145.18;100.00;47785.69;5029322;28;20517;-68
2021/12/21 01:53:17;;;;;;;26.47;7.57;;;;;;;-145.18;100.00;47752.47;5028910;28;20045;-69
2021/12/21 01:55:42;;;;;;;25.30;7.70;;;;;;;-145.18;100.00;47775.91;5027371;28;20121;-68
2021/12/21 01:58:09;;;;;;;17.87;7.47;;;;;;;-145.18;100.00;47758.31;5028828;28;20034;-69
2021/12/21 02:00:35;;;;;;;28.95;9.15;;;;;;;-145.18;100.00;47770.03;5028648;28;20091;-69
2021/12/21 02:03:02;;;;;;;26.92;8.45;;;;;;;-145.18;100.00;47764.19;5028283;28;20029;-67
2021/12/21 02:05:28;;;;;;;28.35;8.13;;;;;;;-145.18;100.00;47758.31;5029627;28;20052;-68
2021/12/21 02:07:53;;;;;;;22.97;7.73;;;;;;;-145.18;100.00;47785.69;5028350;28;20045;-69
2021/12/21 02:10:18;;;;;;;21.80;7.63;;;;;;;-145.18;100.00;47793.50;5028345;28;20399;-69
2021/12/21 02:12:44;;;;;;;18.57;7.90;;;;;;;-145.18;100.00;47770.03;5027255;28;20121;-69
2021/12/21 02:15:09;;;;;;;21.20;7.53;;;;;;;-145.18;100.00;47809.13;5028618;28;20099;-67
2021/12/21 02:18:31;;;;;;;29.83;8.67;;;;;;;-145.18;100.00;47779.81;5028836;28;20423;-68
2021/12/21 02:23:21;;;;;;;27.60;8.25;;;;;;;-145.18;100.00;47768.09;5028242;28;20045;-69
2021/12/21 02:30:44;;;;;;;32.35;9.18;;;;;;;-145.18;100.00;47789.59;5027827;28;20038;-68
2021/12/21 02:33:12;;;;;;;21.67;9.15;;;;;;;-145.18;100.00;47818.91;5027875;28;20419;-68
2021/12/21 02:35:38;;;;;;;27.25;8.93;;;;;;;-145.18;100.00;47783.72;5028189;28;20041;-68
2021/12/21 02:38:04;;;;;;;20.00;7.07;;;;;;;-145.18;100.00;47795.44;5027992;28;20034;-68
2021/12/21 02:40:29;;;;;;;21.23;7.50;;;;;;;-145.18;100.00;47797.41;5028031;28;20302;-68
2021/12/21 02:42:54;;;;;;;30.60;9.07;;;;;;;-145.18;100.00;47803.25;5027649;28;20052;-68
2021/12/21 02:45:20;;;;;;;27.77;8.80;;;;;;;-145.18;100.00;47789.59;5028501;28;20490;-68
2021/12/21 02:47:45;;;;;;;24.30;8.70;;;;;;;-145.18;100.00;47807.16;5027693;28;20565;-68
2021/12/21 02:50:11;;;;;;;26.87;10.30;;;;;;;-145.18;100.00;47768.09;5027936;28;20450;-68
2021/12/21 02:52:36;;;;;;;26.47;8.80;;;;;;;-145.18;100.00;47775.91;5027282;28;20033;-68
2021/12/21 02:55:04;;;;;;;30.13;10.20;;;;;;;-145.18;100.00;47801.31;5027740;28;20037;-68
2021/12/21 02:57:29;;;;;;;36.30;10.73;;;;;;;-145.18;100.00;47793.50;5027738;28;20041;-68
2021/12/21 02:59:55;;;;;;;32.67;10.37;;;;;;;-145.18;100.00;47797.41;5027803;28;20494;-69
2021/12/21 03:02:20;;;;;;;31.63;10.67;;;;;;;-145.18;100.00;47807.16;5010336;28;20037;-69
2021/12/21 03:04:47;;;;;;;29.27;10.40;;;;;;;-145.18;100.00;47811.09;5027815;28;20036;-69
2021/12/21 03:10:02;;;;;;;27.75;10.40;;;;;;;-145.18;100.00;47813.03;5027806;28;20128;-68
2021/12/21 03:15:12;;;;;;;25.38;9.80;;;;;;;-145.18;100.00;47801.31;5026809;28;20052;-68
2021/12/21 03:17:37;;;;;;;23.03;9.40;;;;;;;-145.18;100.00;47789.59;5027026;28;20041;-68
2021/12/21 03:20:03;;;;;;;19.10;8.03;;;;;;;-145.18;100.00;47807.16;5027211;28;20037;-68
2021/12/21 03:22:28;;;;;;;32.00;9.80;;;;;;;-145.18;100.00;47777.88;5027457;28;20057;-69
2021/12/21 03:24:54;;;;;;;20.30;8.73;;;;;;;-145.18;100.00;47787.63;5026221;28;20517;-68
2021/12/21 03:27:19;;;;;;;23.80;8.83;;;;;;;-145.18;100.00;47809.13;5027411;28;20486;-68
2021/12/21 03:29:44;;;;;;;38.63;6.97;;;;;;;-145.18;100.00;47813.03;5027157;28;20486;-68
2021/12/21 03:32:10;;;;;;;23.53;7.80;;;;;;;-145.18;100.00;47813.03;5027139;28;20596;-68
2021/12/21 03:34:35;;;;;;;23.43;8.43;;;;;;;-145.18;100.00;47795.44;5026944;28;20038;-68
2021/12/21 03:37:01;;;;;;;17.57;7.70;;;;;;;-145.18;100.00;47805.22;5026911;28;20559;-68
2021/12/21 03:39:26;;;;;;;28.07;10.00;;;;;;;-145.18;100.00;47799.34;5026754;28;20030;-69
2021/12/21 03:41:56;;;;;;;15.43;7.13;;;;;;;-145.18;100.00;47795.44;5026579;28;20426;-68
2021/12/21 03:44:23;;;;;;;16.08;7.68;;;;;;;-145.18;100.00;47840.38;5026647;28;20081;-68
2021/12/21 03:46:52;;;;;;;24.88;8.88;;;;;;;-145.18;100.00;47815.00;5026610;28;20060;-68
2021/12/21 03:52:07;;;;;;;28.60;9.98;;;;;;;-145.18;100.00;47828.66;5027258;28;20506;-68
2021/12/21 03:54:33;;;;;;;31.02;10.23;;;;;;;-145.18;100.00;47816.94;5026898;28;20052;-68
2021/12/21 03:57:00;;;;;;;33.65;11.43;;;;;;;-145.18;100.00;47816.94;5026595;28;20110;-68
2021/12/21 03:59:26;;;;;;;30.27;11.32;;;;;;;-145.18;100.00;47809.13;5026155;28;20136;-68
2021/12/21 04:01:51;;;;;;;29.87;10.27;;;;;;;-145.18;100.00;47832.56;5026874;28;20041;-68
2021/12/21 04:04:20;;;;;;;28.37;11.90;;;;;;;-145.18;100.00;47824.75;5026621;28;20826;-68
2021/12/21 04:06:46;;;;;;;29.23;10.30;;;;;;;-145.18;100.00;47811.09;5026574;28;20061;-69
2021/12/21 04:09:13;;;;;;;24.05;9.70;;;;;;;-145.18;100.00;47818.91;5026140;28;20045;-69
2021/12/21 04:11:38;;;;;;;33.13;11.48;;;;;;;-145.18;100.00;47801.31;5026981;28;20136;-68
2021/12/21 04:14:05;;;;;;;29.97;10.17;;;;;;;-145.18;100.00;47801.31;5026617;28;20124;-68
2021/12/21 04:16:30;;;;;;;25.92;9.93;;;;;;;-145.18;100.00;47795.44;5026589;28;20509;-68
2021/12/21 04:18:56;;;;;;;25.40;9.30;;;;;;;-145.18;100.00;47818.91;5026254;28;20140;-68
2021/12/21 04:21:21;;;;;;;27.87;10.87;;;;;;;-145.18;100.00;47832.56;5026227;28;20100;-68
2021/12/21 04:23:47;;;;;;;27.73;10.10;;;;;;;-145.18;100.00;47824.75;5026505;28;20044;-69
2021/12/21 04:26:14;;;;;;;25.57;10.57;;;;;;;-145.18;100.00;47820.84;5026852;28;20053;-68
2021/12/21 04:28:41;;;;;;;25.00;10.20;;;;;;;-145.18;100.00;47803.25;5026372;28;20129;-68
2021/12/21 04:31:09;;;;;;;25.67;10.02;;;;;;;-145.18;100.00;47801.31;5026177;28;20553;-68
2021/12/21 04:33:34;;;;;;;23.92;9.48;;;;;;;-145.18;100.00;47818.91;5026247;28;20506;-68
2021/12/21 04:36:01;;;;;;;26.77;10.23;;;;;;;-145.18;100.00;47828.66;5027915;28;20072;-67
2021/12/21 04:38:32;;;;;;;30.27;9.77;;;;;;;-145.18;100.00;47834.53;5029839;28;20045;-68
2021/12/21 04:41:06;;;;;;;26.02;9.32;;;;;;;-145.18;100.00;47816.94;5030174;28;20099;-69
2021/12/21 04:43:32;;;;;;;23.33;9.75;;;;;;;-145.18;100.00;47824.75;5030293;28;20566;-68
2021/12/21 04:45:57;;;;;;;30.57;10.27;;;;;;;-145.18;100.00;47826.72;5030064;28;20121;-68
2021/12/21 04:48:23;;;;;;;25.90;9.33;;;;;;;-145.18;100.00;47815.00;5029342;28;20043;-68
2021/12/21 04:50:49;;;;;;;23.73;9.27;;;;;;;-145.18;100.00;47816.94;5030671;28;20029;-68
2021/12/21 04:53:14;;;;;;;21.80;9.63;;;;;;;-145.18;100.00;47811.09;5029921;28;20410;-68
2021/12/21 04:55:40;;;;;;;33.33;11.07;;;;;;;-145.18;100.00;47811.09;5029880;28;20274;-68
2021/12/21 04:58:05;;;;;;;25.03;10.13;;;;;;;-145.18;100.00;47832.56;5029549;28;20128;-68
2021/12/21 05:00:32;;;;;;;23.47;10.40;;;;;;;-145.18;100.00;47828.66;5029828;28;20042;-68
2021/12/21 05:02:57;;;;;;;24.40;9.75;;;;;;;-145.18;100.00;47801.31;5029860;28;20624;-68
2021/12/21 05:05:23;;;;;;;28.10;10.77;;;;;;;-145.18;100.00;47820.84;5030098;28;20107;-68
2021/12/21 05:07:54;;;;;;;26.80;10.33;;;;;;;-145.18;100.00;47820.84;5029476;28;20052;-68
2021/12/21 05:10:20;;;;;;;25.00;10.07;;;;;;;-145.18;100.00;47795.44;5029345;28;20060;-68
2021/12/21 05:12:46;;;;;;;27.10;10.17;;;;;;;-145.18;100.00;47816.94;5029960;28;20041;-68
2021/12/21 05:15:12;;;;;;;22.83;9.80;;;;;;;-145.18;100.00;47813.03;5029474;28;20095;-67
2021/12/21 05:17:37;;;;;;;24.07;8.77;;;;;;;-145.18;100.00;47809.13;5029514;28;20152;-68
2021/12/21 05:20:04;;;;;;;24.73;10.67;;;;;;;-145.18;100.00;47830.63;5029936;28;20048;-68
2021/12/21 05:22:29;;;;;;;26.55;9.52;;;;;;;-145.18;100.00;47863.84;5029019;28;20044;-68
2021/12/21 05:24:55;;;;;;;29.10;10.70;;;;;;;-145.18;100.00;47822.81;5030303;28;20045;-68
2021/12/21 05:27:21;;;;;;;23.80;10.13;;;;;;;-145.18;100.00;47832.56;5029113;28;20034;-68
2021/12/21 05:29:46;;;;;;;25.90;10.10;;;;;;;-145.18;100.00;47824.75;5029504;28;20040;-68
2021/12/21 05:32:12;;;;;;;24.57;10.53;;;;;;;-145.18;100.00;47834.53;5028530;28;20045;-68
2021/12/21 05:34:38;;;;;;;30.90;10.43;;;;;;;-145.18;100.00;47822.81;5028087;28;20490;-68
2021/12/21 05:37:06;;;;;;;29.50;11.60;;;;;;;-145.18;100.00;47840.38;5033144;28;20274;-68
2021/12/21 05:39:57;;;;;;;29.38;10.68;;;;;;;-145.18;100.00;47828.66;5012880;28;20034;-68
2021/12/21 05:42:23;;;;;;;29.63;10.50;;;;;;;-145.18;100.00;47820.84;5030179;28;20505;-68
2021/12/21 05:44:49;;;;;;;26.65;9.95;;;;;;;-145.18;100.00;47830.63;5031431;28;20575;-68
2021/12/21 05:47:16;;;;;;;26.97;11.47;;;;;;;-145.18;100.00;47848.19;5028134;28;20045;-68
2021/12/21 05:49:41;;;;;;;30.90;10.60;;;;;;;-145.18;100.00;47828.66;5028767;28;20041;-68
2021/12/21 05:52:07;;;;;;;23.87;9.90;;;;;;;-145.18;100.00;47850.16;5031575;28;20048;-68
2021/12/21 05:54:32;;;;;;;19.93;10.03;;;;;;;-145.18;100.00;47842.34;5047619;28;20134;-66
2021/12/21 05:56:58;;;;;;;25.93;10.27;;;;;;;-145.18;100.00;47840.38;5048886;28;20037;-68
2021/12/21 05:59:23;;;;;;;24.37;9.67;;;;;;;-145.18;100.00;47832.56;5048393;28;20509;-68
2021/12/21 06:01:49;;;;;;;27.83;10.60;;;;;;;-145.18;100.00;47859.94;5022428;28;20045;-68
2021/12/21 06:04:14;;;;;;;28.23;10.23;;;;;;;-145.18;100.00;47834.53;5043941;28;20045;-68
2021/12/21 06:06:39;;;;;;;29.00;11.77;;;;;;;-145.18;100.00;47857.97;5034377;28;20048;-68
2021/12/21 06:09:08;;;;;;;27.37;9.37;;;;;;;-145.18;100.00;47830.63;5047353;28;20036;-68
2021/12/21 06:11:41;;;;;;;22.80;10.23;;;;;;;-145.18;100.00;47830.63;5030720;28;20869;-68
2021/12/21 06:27:23;;;;;;;20.75;9.43;;;;;;;-145.18;100.00;47861.88;5042688;28;20520;-68
2021/12/21 06:29:49;;;;;;;22.87;10.33;;;;;;;-145.18;100.00;47844.28;5046069;28;20037;-68
2021/12/21 06:32:15;;;;;;;20.70;8.33;;;;;;;-145.18;100.00;47836.47;5047594;28;20064;-68
2021/12/21 06:34:40;;;;;;;16.63;7.27;;;;;;;-145.18;100.00;47842.34;5047870;28;20463;-68
2021/12/21 06:37:06;;;;;;;20.40;8.20;;;;;;;-145.18;100.00;47842.34;5030164;28;20037;-68
2021/12/21 06:39:33;;;;;;;26.55;9.10;;;;;;;-145.18;100.00;47832.56;5033938;28;20049;-68
2021/12/21 06:41:59;;;;;;;20.35;8.25;;;;;;;-145.18;100.00;47840.38;5047783;28;20094;-68
2021/12/21 06:44:25;;;;;;;17.55;8.85;;;;;;;-145.18;100.00;47848.19;5047028;28;20044;-68
2021/12/21 06:52:19;;;;;;;24.70;10.13;;;;;;;-145.18;100.00;47859.94;5046914;28;20044;-69
2021/12/21 06:54:44;;;;;;;17.63;8.77;;;;;;;-145.18;100.00;47828.66;5047330;28;20037;-68
2021/12/21 06:57:10;;;;;;;16.53;8.07;;;;;;;-145.18;100.00;47867.75;5046739;28;20440;-68
2021/12/21 06:59:35;;;;;;;20.13;9.17;;;;;;;-145.18;100.00;47861.88;5046768;28;20043;-68
2021/12/21 07:02:01;;;;;;;22.27;9.63;;;;;;;-145.18;100.00;47836.47;5045586;28;20041;-68
2021/12/21 07:04:26;;;;;;;27.50;10.93;;;;;;;-145.18;100.00;47846.25;5047315;28;20043;-68
2021/12/21 07:06:54;;;;;;;25.27;10.57;;;;;;;-145.18;100.00;47834.53;5045909;28;20068;-68
2021/12/21 07:09:32;;;;;;;16.67;10.05;;;;;;;-145.18;100.00;47848.19;5036554;28;20474;-68
2021/12/21 07:20:09;;;;;;;27.90;10.98;;;;;;;-145.18;100.00;47828.66;5039369;28;20056;-67
2021/12/21 07:22:35;;;;;;;34.73;11.50;;;;;;;-145.18;100.00;47832.56;5045937;28;20136;-69
2021/12/21 07:25:00;;;;;;;25.67;11.50;;;;;;;-145.18;100.00;47844.28;5041496;28;20036;-68
2021/12/21 07:27:26;;;;;;;30.37;12.73;;;;;;;-145.18;100.00;47854.06;5034688;28;20445;-69
2021/12/21 07:29:51;;;;;;;28.37;11.93;;;;;;;-145.18;100.00;47867.75;5042961;28;20512;-67
2021/12/21 07:32:16;;;;;;;34.60;12.00;;;;;;;-145.18;100.00;47850.16;5042921;28;20056;-68
2021/12/21 07:34:42;;;;;;;31.20;11.30;;;;;;;-145.18;100.00;47838.44;5044729;28;20055;-68
2021/12/21 07:37:09;;;;;;;26.67;12.10;;;;;;;-145.18;100.00;47828.66;5042675;28;20511;-68
2021/12/21 07:39:36;;;;;;;26.05;11.00;;;;;;;-145.18;100.00;47848.19;5032703;28;20060;-67
2021/12/21 07:42:03;;;;;;;25.50;11.82;;;;;;;-145.18;100.00;47838.44;5007140;28;20529;-68
2021/12/21 07:44:28;;;;;;;32.50;11.68;;;;;;;-145.18;100.00;47859.94;5045678;28;20052;-68
2021/12/21 07:46:54;;;;;;;30.07;11.30;;;;;;;-145.18;100.00;47834.53;5045578;28;20417;-69
2021/12/21 07:49:19;;;;;;;29.40;11.57;;;;;;;-145.18;100.00;47859.94;5045920;28;20040;-68
2021/12/21 07:51:45;;;;;;;33.03;12.43;;;;;;;-145.18;100.00;47844.28;5044800;28;20048;-68
2021/12/21 07:54:10;;;;;;;19.37;10.47;;;;;;;-145.18;100.00;47846.25;5031513;28;20410;-69
2021/12/21 07:56:36;;;;;;;36.30;12.93;;;;;;;-145.18;100.00;47840.38;5029751;28;20044;-66
2021/12/21 07:59:04;;;;;;;25.57;10.97;;;;;;;-145.18;100.00;47828.66;5041331;28;20038;-68
2021/12/21 08:01:29;;;;;;;24.50;11.60;;;;;;;-145.18;100.00;47846.25;5032684;28;20069;-69
2021/12/21 08:03:56;;;;;;;29.57;11.00;;;;;;;-145.18;100.00;47852.13;5046610;28;20122;-69
2021/12/21 08:06:22;;;;;;;21.40;9.25;;;;;;;-145.18;100.00;47836.47;5046401;28;20040;-68
2021/12/21 08:08:49;;;;;;;25.80;10.23;;;;;;;-145.18;100.00;47830.63;5046618;28;20059;-68
2021/12/21 08:11:27;;;;;;;19.50;9.75;;;;;;;-145.18;100.00;47834.53;5044661;28;20041;-68
2021/12/21 08:13:53;;;;;;;22.58;9.90;;;;;;;-145.18;100.00;47836.47;5050730;28;20045;-68
2021/12/21 08:16:19;;;;;;;21.27;9.73;;;;;;;-145.18;100.00;47848.19;5049371;28;20041;-68
2021/12/21 08:18:44;;;;;;;23.50;8.90;;;;;;;-145.18;100.00;47840.38;5050663;28;20768;-68
2021/12/21 08:21:12;;;;;;;29.47;11.57;;;;;;;-145.18;100.00;47846.25;5049537;28;20067;-68
2021/12/21 08:23:38;;;;;;;22.40;10.52;;;;;;;-145.18;100.00;47838.44;5050276;28;20040;-68
2021/12/21 08:26:05;;;;;;;23.27;11.20;;;;;;;-145.18;100.00;47830.63;5050352;28;20035;-69
2021/12/21 08:28:31;;;;;;;23.58;10.68;;;;;;;-145.18;100.00;47848.19;5050925;28;20045;-68
2021/12/21 08:30:57;;;;;;;35.07;11.67;;;;;;;-145.18;100.00;47818.91;5050706;28;20037;-68
2021/12/21 08:33:22;;;;;;;30.37;11.80;;;;;;;-145.18;100.00;47830.63;5049746;28;20089;-68
2021/12/21 08:35:47;;;;;;;25.70;11.27;;;;;;;-145.18;100.00;47820.84;5050049;28;20509;-68
2021/12/21 08:38:16;;;;;;;28.57;12.17;;;;;;;-145.18;100.00;47816.94;5050050;28;20136;-68
2021/12/21 08:40:43;;;;;;;25.73;11.23;;;;;;;-145.18;100.00;47838.44;5050331;28;20063;-68
2021/12/21 08:43:12;;;;;;;32.63;12.50;;;;;;;-145.18;100.00;47818.91;5049105;28;20037;-68
2021/12/21 08:45:39;;;;;;;23.30;10.88;;;;;;;-145.18;100.00;47836.47;5050148;28;20048;-69
2021/12/21 08:48:05;;;;;;;31.63;12.82;;;;;;;-145.18;100.00;47803.25;5050383;28;20059;-68
2021/12/21 08:50:32;;;;;;;24.55;11.27;;;;;;;-145.18;100.00;47805.22;5046905;28;20045;-68
2021/12/21 08:52:58;;;;;;;25.90;12.93;;;;;;;-145.18;100.00;47809.13;5049728;28;20086;-68
2021/12/21 08:55:24;;;;;;;27.38;12.65;;;;;;;-145.18;100.00;47813.03;5048258;28;20087;-68
2021/12/21 08:57:50;;;;;;;24.23;11.85;;;;;;;-145.18;100.00;47822.81;5049654;28;20056;-68
2021/12/21 09:00:16;;;;;;;37.77;13.83;;;;;;;-145.18;100.00;47811.09;5049673;28;20064;-68
2021/12/21 09:02:41;;;;;;;28.27;13.35;;;;;;;-145.18;100.00;47816.94;5049239;28;20571;-69
2021/12/21 09:05:14;;;;;;;30.57;13.33;;;;;;;-145.18;100.00;47799.34;5050445;28;20040;-68
2021/12/21 09:07:43;;;;;;;29.42;13.45;;;;;;;-145.18;100.00;47781.78;5049484;28;20044;-68
2021/12/21 09:10:10;;;;;;;29.75;13.48;;;;;;;-145.18;100.00;47809.13;5049664;28;20041;-68
2021/12/21 09:12:35;;;;;;;33.95;13.95;;;;;;;-145.18;100.00;47789.59;5048844;28;20099;-68
2021/12/21 09:15:01;;;;;;;36.33;15.63;;;;;;;-145.18;100.00;47762.22;5049536;28;20037;-68
2021/12/21 09:17:28;;;;;;;37.45;16.05;;;;;;;-145.18;100.00;47797.41;5048839;28;20440;-69
2021/12/21 09:19:54;;;;;;;38.33;16.58;;;;;;;-145.18;100.00;47787.63;5049356;28;20060;-69
2021/12/21 09:22:19;;;;;;;31.67;16.23;;;;;;;-145.18;100.00;47772.00;5049118;28;20490;-68
2021/12/21 09:24:44;;;;;;;37.97;17.23;;;;;;;-145.18;100.00;47754.41;5049674;28;20036;-68
2021/12/21 09:27:11;;;;;;;37.17;16.13;;;;;;;-145.18;100.00;47754.41;5049231;28;20049;-68
2021/12/21 09:29:38;;;;;;;36.97;15.55;;;;;;;-145.18;100.00;47732.94;5048934;28;20565;-69
2021/12/21 09:32:05;;;;;;;36.53;17.50;;;;;;;-145.18;100.00;47768.09;5048778;28;20403;-69
2021/12/21 09:34:31;;;;;;;36.60;15.55;;;;;;;-145.18;100.00;47748.56;5030963;28;20498;-69
2021/12/21 09:36:56;;;;;;;34.67;16.53;;;;;;;-145.18;100.00;47742.69;5049158;28;20090;-71
2021/12/21 09:39:22;;;;;;;31.67;15.03;;;;;;;-145.18;100.00;47754.41;5049717;28;20044;-71
2021/12/21 09:41:47;;;;;;;32.57;16.13;;;;;;;-145.18;100.00;47732.94;5048841;28;20426;-72
2021/12/21 09:44:13;;;;;;;36.47;16.40;;;;;;;-145.18;100.00;47727.06;5049346;28;20068;-73
2021/12/21 09:46:38;;;;;;;35.43;17.80;;;;;;;-145.18;100.00;47736.84;5021772;28;20049;-72
2021/12/21 09:49:04;;;;;;;37.70;16.73;;;;;;;-145.18;100.00;47730.97;5028526;28;20080;-71
2021/12/21 09:51:29;;;;;;;32.87;16.33;;;;;;;-145.18;100.00;47727.06;5028810;28;20040;-70
2021/12/21 09:53:56;;;;;;;40.67;17.47;;;;;;;-145.18;100.00;47705.56;5036913;28;20042;-71
2021/12/21 09:56:22;;;;;;;35.60;16.23;;;;;;;-145.18;100.00;47711.44;5016786;28;20510;-71
2021/12/21 09:58:47;;;;;;;47.47;18.10;;;;;;;-145.18;100.00;47713.38;5028880;28;20060;-71
2021/12/21 10:01:14;;;;;;;45.17;17.20;;;;;;;-145.18;100.00;47713.38;5029014;28;20128;-71
2021/12/21 10:03:40;;;;;;;32.63;16.45;;;;;;;-145.18;100.00;47713.38;5037124;28;20041;-71
2021/12/21 10:06:12;;;;;;;40.10;17.40;;;;;;;-145.18;100.00;47717.28;5049200;28;20033;-71
2021/12/21 10:08:39;;;;;;;31.92;16.17;;;;;;;-145.18;100.00;47695.81;5047838;28;20029;-71
2021/12/21 10:11:16;;;;;;;32.88;16.85;;;;;;;-145.18;100.00;47682.13;5048326;28;20052;-71
2021/12/21 10:13:41;;;;;;;43.22;16.55;;;;;;;-145.18;100.00;47691.91;5048066;28;20037;-71
2021/12/21 10:16:07;;;;;;;30.63;16.03;;;;;;;-145.18;100.00;47695.81;5048937;28;20036;-71
2021/12/21 10:18:39;;;;;;;37.67;16.43;;;;;;;-145.18;100.00;47687.97;5048454;28;20454;-72
2021/12/21 10:21:06;;;;;;;35.65;15.90;;;;;;;-145.18;100.00;47684.06;5047898;28;20045;-73
2021/12/21 10:23:35;;;;;;;31.45;15.55;;;;;;;-145.18;100.00;47691.91;5048736;28;20037;-73
2021/12/21 10:26:28;;;;;;;36.72;15.98;;;;;;;-145.18;100.00;47689.94;5048681;28;20040;-73
2021/12/21 10:29:02;;;;;;;44.90;16.90;;;;;;;-145.18;100.00;47670.41;5048302;28;20128;-74
2021/12/21 10:31:29;;;;;;;32.22;15.25;;;;;;;-145.18;100.00;47664.53;5048034;28;20108;-74
2021/12/21 10:33:59;;;;;;;36.95;16.02;;;;;;;-145.18;100.00;47668.44;5047587;28;20044;-74
2021/12/21 10:36:27;;;;;;;36.45;14.80;;;;;;;-145.18;100.00;47664.53;5047828;28;20448;-73
2021/12/21 10:38:56;;;;;;;30.60;14.77;;;;;;;-145.18;100.00;47656.72;5047923;28;20107;-73
2021/12/21 10:41:31;;;;;;;30.48;13.52;;;;;;;-145.18;100.00;47656.72;5047944;28;20037;-73
2021/12/21 10:44:09;;;;;;;28.05;13.35;;;;;;;-145.18;100.00;47639.13;5047778;28;20045;-73
2021/12/21 10:46:41;;;;;;;25.63;13.98;;;;;;;-145.18;100.00;47637.19;5041431;28;20527;-73
2021/12/21 10:49:17;;;;;;;31.45;14.95;;;;;;;-145.18;100.00;47631.31;5013860;28;20523;-73
2021/12/21 10:52:04;;;;;;;32.50;13.63;;;;;;;-145.18;100.00;47637.19;5059227;28;20676;-73
2021/12/21 10:54:36;;;;;;;32.08;13.52;;;;;;;-145.18;100.00;47627.41;5047262;28;20498;-74
2021/12/21 10:57:05;;;;;;;20.00;11.70;;;;;;;-145.18;100.00;47613.75;5047298;28;20036;-74
2021/12/21 10:59:32;;;;;;;24.83;12.43;;;;;;;-145.18;100.00;47609.84;5047274;28;20044;-74
2021/12/21 11:02:33;;;;;;;24.67;12.48;;;;;;;-145.18;100.00;47617.66;5044757;28;20610;-74
2021/12/21 11:05:27;;;;;;;21.20;11.82;;;;;;;-145.18;100.00;47639.13;5001892;28;20510;-75
2021/12/21 11:10:34;;;;;;;26.27;12.20;;;;;;;-145.18;100.00;47615.69;5040409;28;20142;-74
2021/12/21 11:13:01;;;;;;;25.48;11.45;;;;;;;-145.18;100.00;47603.97;5039630;28;20052;-74
2021/12/21 11:15:30;;;;;;;21.10;11.20;;;;;;;-145.18;100.00;47607.88;5037939;28;20123;-74
2021/12/21 11:17:58;;;;;;;24.98;11.77;;;;;;;-145.18;100.00;47600.06;5035897;28;20511;-74
2021/12/21 11:20:24;;;;;;;20.70;12.30;;;;;;;-145.18;100.00;47605.94;5038543;28;20033;-74
2021/12/21 11:22:51;;;;;;;23.53;11.53;;;;;;;-145.18;100.00;47594.19;5042466;28;20278;-74
2021/12/21 11:25:16;;;;;;;23.90;10.70;;;;;;;-145.18;100.00;47590.28;5046123;28;20297;-74
2021/12/21 11:27:43;;;;;;;26.83;12.13;;;;;;;-145.18;100.00;47578.56;5045328;28;20072;-74
2021/12/21 11:30:18;;;;;;;25.43;11.17;;;;;;;-145.18;100.00;47576.63;5046110;28;20036;-74
2021/12/21 11:32:48;;;;;;;26.40;12.23;;;;;;;-145.18;100.00;47576.63;5045175;28;20273;-74
2021/12/21 11:37:54;;;;;;;36.53;14.47;;;;;;;-145.18;95.08;47572.72;5045548;28;20285;-75
2021/12/21 11:40:23;;;;;;;33.90;14.77;;;;;;;-145.18;92.62;47547.31;5046066;28;20627;-74
2021/12/21 11:42:52;;;;;;;36.90;13.93;;;;;;;-145.18;91.27;47570.75;5044882;28;20277;-74
2021/12/21 11:45:41;;;;;;;34.47;14.07;;;;;;;-145.18;91.66;47547.31;5044765;28;20775;-75
2021/12/21 11:48:09;;;;;;;34.57;12.37;;;;;;;-145.18;91.31;47545.34;5043803;28;20266;-75
2021/12/21 11:50:36;;;;;;;27.47;12.00;;;;;;;-145.18;89.32;47537.53;5045306;28;20266;-74
2021/12/21 11:53:05;;;;;;;26.33;11.70;;;;;;;-145.18;87.74;47525.81;5045277;28;20282;-75
2021/12/21 11:55:34;;;;;;;25.20;12.13;;;;;;;-145.18;87.86;47525.81;5042237;28;20550;-75
2021/12/21 11:58:13;;;;;;;24.17;10.50;;;;;;;-145.18;85.31;47523.88;5035960;28;20325;-75
2021/12/21 12:00:53;;;;;;;32.13;11.93;;;;;;;-145.18;85.59;47510.19;5035613;28;20307;-75
2021/12/21 12:03:22;;;;;;;24.77;11.43;;;;;;;-145.18;83.97;47529.72;5044202;28;20273;-75
2021/12/21 12:05:54;;;;;;;25.80;10.83;;;;;;;-145.18;81.33;47500.41;5046080;28;20286;-75
2021/12/21 12:08:20;;;;;;;18.17;11.20;;;;;;;-145.18;81.87;47500.41;5044991;28;20336;-75
2021/12/21 12:10:49;;;;;;;25.33;11.83;;;;;;;-145.18;82.82;47488.69;5046724;28;20361;-75
2021/12/21 12:13:28;;;;;;;24.37;10.73;;;;;;;-145.18;81.80;47482.84;5045939;28;20369;-76
2021/12/21 12:16:06;;;;;;;23.20;11.00;;;;;;;-145.18;80.80;47471.13;5046721;28;20276;-76
2021/12/21 12:18:39;;;;;;;28.10;12.27;;;;;;;-145.18;75.74;47465.25;5046623;28;20266;-76
2021/12/21 12:21:14;;;;;;;25.27;11.40;;;;;;;-145.18;72.81;47443.75;5046561;28;20297;-77
2021/12/21 12:23:48;;;;;;;24.23;10.77;;;;;;;-145.18;69.29;47439.84;5046124;28;20331;-77
2021/12/21 12:26:22;;;;;;;27.13;11.07;;;;;;;-145.18;66.42;47439.84;5043024;28;20717;-77